sensor_id;sensor_type;location;lat;lon;timestamp;temperature;humidity
2571;DHT22;1295;51.130;6.732;2023-10-19T00:02:20;12.40;99.90
2571;DHT22;1295;51.130;6.732;2023-10-19T00:04:47;12.30;99.90
2571;DHT22;1295;51.130;6.732;2023-10-19T00:07:12;12.30;99.90
2571;DHT22;1295;51.130;6.732;2023-10-19T00:09:38;12.60;99.90
2571;DHT22;1295;51.130;6.732;2023-10-19T00:12:04;12.40;99.90
2571;DHT22;1295;51.130;6.732;2023-10-19T00:14:29;12.60;99.90
2571;DHT22;1295;51.130;6.732;2023-10-19T00:16:56;12.30;99.90
2571;DHT22;1295;51.130;6.732;2023-10-19T00:19:22;12.30;99.90
2571;DHT22;1295;51.130;6.732;2023-10-19T00:21:48;12.50;99.90
2571;DHT22;1295;51.130;6.732;2023-10-19T00:24:14;12.50;99.90
2571;DHT22;1295;51.130;6.732;2023-10-19T00:26:41;12.60;99.90
2571;DHT22;1295;51.130;6.732;2023-10-19T00:29:06;12.60;99.90
2571;DHT22;1295;51.130;6.732;2023-10-19T00:31:32;12.60;99.90
2571;DHT22;1295;51.130;6.732;2023-10-19T00:33:58;12.80;99.90
2571;DHT22;1295;51.130;6.732;2023-10-19T00:36:23;12.70;99.90
2571;DHT22;1295;51.130;6.732;2023-10-19T00:38:50;12.90;99.90
2571;DHT22;1295;51.130;6.732;2023-10-19T00:41:21;12.90;99.90
2571;DHT22;1295;51.130;6.732;2023-10-19T00:43:45;12.90;99.90
2571;DHT22;1295;51.130;6.732;2023-10-19T00:46:11;12.70;99.90
2571;DHT22;1295;51.130;6.732;2023-10-19T00:48:44;12.50;99.90
2571;DHT22;1295;51.130;6.732;2023-10-19T00:51:10;12.60;99.90
2571;DHT22;1295;51.130;6.732;2023-10-19T00:53:36;12.60;99.90
2571;DHT22;1295;51.130;6.732;2023-10-19T00:56:02;12.40;99.90
2571;DHT22;1295;51.130;6.732;2023-10-19T00:58:28;12.40;99.90
2571;DHT22;1295;51.130;6.732;2023-10-19T01:00:53;12.40;99.90
2571;DHT22;1295;51.130;6.732;2023-10-19T01:03:19;12.40;99.90
2571;DHT22;1295;51.130;6.732;2023-10-19T01:05:45;12.60;99.90
2571;DHT22;1295;51.130;6.732;2023-10-19T01:08:11;12.60;99.90
2571;DHT22;1295;51.130;6.732;2023-10-19T01:10:37;12.60;99.90
2571;DHT22;1295;51.130;6.732;2023-10-19T01:13:03;12.80;99.90
2571;DHT22;1295;51.130;6.732;2023-10-19T01:15:28;12.80;99.90
2571;DHT22;1295;51.130;6.732;2023-10-19T01:17:55;12.60;99.90
2571;DHT22;1295;51.130;6.732;2023-10-19T01:20:21;12.60;99.90
2571;DHT22;1295;51.130;6.732;2023-10-19T01:22:50;12.50;99.90
2571;DHT22;1295;51.130;6.732;2023-10-19T01:25:15;12.50;99.90
2571;DHT22;1295;51.130;6.732;2023-10-19T01:27:41;12.30;99.90
2571;DHT22;1295;51.130;6.732;2023-10-19T01:30:08;12.30;99.90
2571;DHT22;1295;51.130;6.732;2023-10-19T01:32:34;12.30;99.90
2571;DHT22;1295;51.130;6.732;2023-10-19T01:35:01;12.80;99.90
2571;DHT22;1295;51.130;6.732;2023-10-19T01:37:26;12.80;99.90
2571;DHT22;1295;51.130;6.732;2023-10-19T01:39:52;12.60;99.90
2571;DHT22;1295;51.130;6.732;2023-10-19T01:42:17;12.60;99.90
2571;DHT22;1295;51.130;6.732;2023-10-19T01:44:43;12.80;99.90
2571;DHT22;1295;51.130;6.732;2023-10-19T01:47:09;12.90;99.90
2571;DHT22;1295;51.130;6.732;2023-10-19T01:49:35;12.90;99.90
2571;DHT22;1295;51.130;6.732;2023-10-19T01:52:01;12.80;99.90
2571;DHT22;1295;51.130;6.732;2023-10-19T01:54:26;12.90;99.90
2571;DHT22;1295;51.130;6.732;2023-10-19T01:56:52;12.90;99.90
2571;DHT22;1295;51.130;6.732;2023-10-19T01:59:17;12.60;99.90
2571;DHT22;1295;51.130;6.732;2023-10-19T02:01:44;12.60;99.90
2571;DHT22;1295;51.130;6.732;2023-10-19T02:04:09;12.50;99.90
2571;DHT22;1295;51.130;6.732;2023-10-19T02:06:35;12.50;99.90
2571;DHT22;1295;51.130;6.732;2023-10-19T02:09:04;12.70;99.90
2571;DHT22;1295;51.130;6.732;2023-10-19T02:11:34;12.70;99.90
2571;DHT22;1295;51.130;6.732;2023-10-19T02:14:00;12.70;99.90
2571;DHT22;1295;51.130;6.732;2023-10-19T02:16:26;12.70;99.90
2571;DHT22;1295;51.130;6.732;2023-10-19T02:18:52;12.70;99.90
2571;DHT22;1295;51.130;6.732;2023-10-19T02:21:18;12.80;99.90
2571;DHT22;1295;51.130;6.732;2023-10-19T02:23:48;12.80;99.90
2571;DHT22;1295;51.130;6.732;2023-10-19T02:26:14;12.70;99.90
2571;DHT22;1295;51.130;6.732;2023-10-19T02:28:40;12.70;99.90
2571;DHT22;1295;51.130;6.732;2023-10-19T02:31:05;12.90;99.90
2571;DHT22;1295;51.130;6.732;2023-10-19T02:33:36;12.80;99.90
2571;DHT22;1295;51.130;6.732;2023-10-19T02:36:02;12.60;99.90
2571;DHT22;1295;51.130;6.732;2023-10-19T02:38:27;12.50;99.90
2571;DHT22;1295;51.130;6.732;2023-10-19T02:40:53;12.60;99.90
2571;DHT22;1295;51.130;6.732;2023-10-19T02:43:24;12.70;99.90
2571;DHT22;1295;51.130;6.732;2023-10-19T02:45:55;12.60;99.90
2571;DHT22;1295;51.130;6.732;2023-10-19T02:48:21;12.60;99.90
2571;DHT22;1295;51.130;6.732;2023-10-19T02:50:46;12.80;99.90
2571;DHT22;1295;51.130;6.732;2023-10-19T02:53:12;12.70;99.90
2571;DHT22;1295;51.130;6.732;2023-10-19T02:55:38;12.80;99.90
2571;DHT22;1295;51.130;6.732;2023-10-19T02:58:03;12.70;99.90
2571;DHT22;1295;51.130;6.732;2023-10-19T03:00:29;12.80;99.90
2571;DHT22;1295;51.130;6.732;2023-10-19T03:02:55;12.60;99.90
2571;DHT22;1295;51.130;6.732;2023-10-19T03:05:22;12.80;99.90
2571;DHT22;1295;51.130;6.732;2023-10-19T03:07:47;12.80;99.90
2571;DHT22;1295;51.130;6.732;2023-10-19T03:10:13;12.80;99.90
2571;DHT22;1295;51.130;6.732;2023-10-19T03:12:45;12.70;99.90
2571;DHT22;1295;51.130;6.732;2023-10-19T03:15:10;12.70;99.90
2571;DHT22;1295;51.130;6.732;2023-10-19T03:17:36;12.60;99.90
2571;DHT22;1295;51.130;6.732;2023-10-19T03:20:02;12.70;99.90
2571;DHT22;1295;51.130;6.732;2023-10-19T03:22:28;12.70;99.90
2571;DHT22;1295;51.130;6.732;2023-10-19T03:24:54;12.70;99.90
2571;DHT22;1295;51.130;6.732;2023-10-19T03:27:37;12.80;99.90
2571;DHT22;1295;51.130;6.732;2023-10-19T03:30:03;12.80;99.90
2571;DHT22;1295;51.130;6.732;2023-10-19T03:32:29;12.90;99.90
2571;DHT22;1295;51.130;6.732;2023-10-19T03:34:55;12.80;99.90
2571;DHT22;1295;51.130;6.732;2023-10-19T03:37:23;12.80;99.90
2571;DHT22;1295;51.130;6.732;2023-10-19T03:39:54;12.70;99.90
2571;DHT22;1295;51.130;6.732;2023-10-19T03:42:21;12.70;99.90
2571;DHT22;1295;51.130;6.732;2023-10-19T03:44:46;12.70;99.90
2571;DHT22;1295;51.130;6.732;2023-10-19T03:47:20;12.70;99.90
2571;DHT22;1295;51.130;6.732;2023-10-19T03:49:46;12.80;99.90
2571;DHT22;1295;51.130;6.732;2023-10-19T03:52:12;12.90;99.90
2571;DHT22;1295;51.130;6.732;2023-10-19T03:54:52;12.90;99.90
2571;DHT22;1295;51.130;6.732;2023-10-19T03:57:18;12.80;99.90
2571;DHT22;1295;51.130;6.732;2023-10-19T03:59:45;12.80;99.90
2571;DHT22;1295;51.130;6.732;2023-10-19T04:02:10;12.80;99.90
2571;DHT22;1295;51.130;6.732;2023-10-19T04:04:40;12.80;99.90
2571;DHT22;1295;51.130;6.732;2023-10-19T04:07:05;12.70;99.90
2571;DHT22;1295;51.130;6.732;2023-10-19T04:09:33;12.70;99.90
2571;DHT22;1295;51.130;6.732;2023-10-19T04:11:58;12.60;99.90
2571;DHT22;1295;51.130;6.732;2023-10-19T04:14:31;12.70;99.90
2571;DHT22;1295;51.130;6.732;2023-10-19T04:16:57;12.70;99.90
2571;DHT22;1295;51.130;6.732;2023-10-19T04:19:22;12.70;99.90
2571;DHT22;1295;51.130;6.732;2023-10-19T04:21:49;12.80;99.90
2571;DHT22;1295;51.130;6.732;2023-10-19T04:24:15;12.80;99.90
2571;DHT22;1295;51.130;6.732;2023-10-19T04:26:41;12.70;99.90
2571;DHT22;1295;51.130;6.732;2023-10-19T04:29:07;12.70;99.90
2571;DHT22;1295;51.130;6.732;2023-10-19T04:31:37;12.80;99.90
2571;DHT22;1295;51.130;6.732;2023-10-19T04:34:03;12.80;99.90
2571;DHT22;1295;51.130;6.732;2023-10-19T04:36:29;12.80;99.90
2571;DHT22;1295;51.130;6.732;2023-10-19T04:38:55;12.80;99.90
2571;DHT22;1295;51.130;6.732;2023-10-19T04:41:21;12.70;99.90
2571;DHT22;1295;51.130;6.732;2023-10-19T04:43:47;12.70;99.90
2571;DHT22;1295;51.130;6.732;2023-10-19T04:46:13;12.80;99.90
2571;DHT22;1295;51.130;6.732;2023-10-19T04:48:39;12.60;99.90
2571;DHT22;1295;51.130;6.732;2023-10-19T04:51:04;12.70;99.90
2571;DHT22;1295;51.130;6.732;2023-10-19T04:53:30;12.70;99.90
2571;DHT22;1295;51.130;6.732;2023-10-19T04:55:55;12.70;99.90
2571;DHT22;1295;51.130;6.732;2023-10-19T04:58:21;12.60;99.90
2571;DHT22;1295;51.130;6.732;2023-10-19T05:00:54;12.60;99.90
2571;DHT22;1295;51.130;6.732;2023-10-19T05:03:19;12.60;99.90
2571;DHT22;1295;51.130;6.732;2023-10-19T05:05:45;12.50;99.90
2571;DHT22;1295;51.130;6.732;2023-10-19T05:08:11;12.70;99.90
2571;DHT22;1295;51.130;6.732;2023-10-19T05:10:36;12.60;99.90
2571;DHT22;1295;51.130;6.732;2023-10-19T05:13:03;12.60;99.90
2571;DHT22;1295;51.130;6.732;2023-10-19T05:15:29;12.70;99.90
2571;DHT22;1295;51.130;6.732;2023-10-19T05:17:56;12.70;99.90
2571;DHT22;1295;51.130;6.732;2023-10-19T05:20:21;12.70;99.90
2571;DHT22;1295;51.130;6.732;2023-10-19T05:22:47;12.70;99.90
2571;DHT22;1295;51.130;6.732;2023-10-19T05:25:12;12.60;99.90
2571;DHT22;1295;51.130;6.732;2023-10-19T05:27:38;12.60;99.90
2571;DHT22;1295;51.130;6.732;2023-10-19T05:30:05;12.60;99.90
2571;DHT22;1295;51.130;6.732;2023-10-19T05:32:31;12.60;99.90
2571;DHT22;1295;51.130;6.732;2023-10-19T05:34:56;12.70;99.90
2571;DHT22;1295;51.130;6.732;2023-10-19T05:37:22;12.70;99.90
2571;DHT22;1295;51.130;6.732;2023-10-19T05:39:48;12.70;99.90
2571;DHT22;1295;51.130;6.732;2023-10-19T05:42:13;12.50;99.90
2571;DHT22;1295;51.130;6.732;2023-10-19T05:44:39;12.70;99.90
2571;DHT22;1295;51.130;6.732;2023-10-19T05:47:04;12.70;99.90
2571;DHT22;1295;51.130;6.732;2023-10-19T05:49:32;12.50;99.90
2571;DHT22;1295;51.130;6.732;2023-10-19T05:51:56;12.70;99.90
2571;DHT22;1295;51.130;6.732;2023-10-19T05:54:21;12.80;99.90
2571;DHT22;1295;51.130;6.732;2023-10-19T05:56:48;12.70;99.90
2571;DHT22;1295;51.130;6.732;2023-10-19T05:59:13;12.70;99.90
2571;DHT22;1295;51.130;6.732;2023-10-19T06:01:39;12.70;99.90
2571;DHT22;1295;51.130;6.732;2023-10-19T06:04:05;12.80;99.90
2571;DHT22;1295;51.130;6.732;2023-10-19T06:06:32;12.70;99.90
2571;DHT22;1295;51.130;6.732;2023-10-19T06:08:57;12.70;99.90
2571;DHT22;1295;51.130;6.732;2023-10-19T06:11:23;12.80;99.90
2571;DHT22;1295;51.130;6.732;2023-10-19T06:13:49;12.70;99.90
2571;DHT22;1295;51.130;6.732;2023-10-19T06:16:15;12.70;99.90
2571;DHT22;1295;51.130;6.732;2023-10-19T06:18:43;12.80;99.90
2571;DHT22;1295;51.130;6.732;2023-10-19T06:21:07;12.80;99.90
2571;DHT22;1295;51.130;6.732;2023-10-19T06:23:33;12.70;99.90
2571;DHT22;1295;51.130;6.732;2023-10-19T06:25:58;12.80;99.90
2571;DHT22;1295;51.130;6.732;2023-10-19T06:28:24;12.70;99.90
2571;DHT22;1295;51.130;6.732;2023-10-19T06:30:50;12.60;99.90
2571;DHT22;1295;51.130;6.732;2023-10-19T06:33:15;12.70;99.90
2571;DHT22;1295;51.130;6.732;2023-10-19T06:35:41;12.70;99.90
2571;DHT22;1295;51.130;6.732;2023-10-19T06:38:07;12.70;99.90
2571;DHT22;1295;51.130;6.732;2023-10-19T06:40:33;12.70;99.90
2571;DHT22;1295;51.130;6.732;2023-10-19T06:42:58;12.70;99.90
2571;DHT22;1295;51.130;6.732;2023-10-19T06:45:25;12.70;99.90
2571;DHT22;1295;51.130;6.732;2023-10-19T06:47:51;12.80;99.90
2571;DHT22;1295;51.130;6.732;2023-10-19T06:50:17;12.90;99.90
2571;DHT22;1295;51.130;6.732;2023-10-19T06:52:43;12.90;99.90
2571;DHT22;1295;51.130;6.732;2023-10-19T06:55:09;12.70;99.90
2571;DHT22;1295;51.130;6.732;2023-10-19T06:57:41;12.70;99.90
2571;DHT22;1295;51.130;6.732;2023-10-19T07:00:08;12.90;99.90
2571;DHT22;1295;51.130;6.732;2023-10-19T07:02:36;12.90;99.90
2571;DHT22;1295;51.130;6.732;2023-10-19T07:05:02;12.90;99.90
2571;DHT22;1295;51.130;6.732;2023-10-19T07:07:28;12.80;99.90
2571;DHT22;1295;51.130;6.732;2023-10-19T07:09:54;12.90;99.90
2571;DHT22;1295;51.130;6.732;2023-10-19T07:12:20;13.10;99.90
2571;DHT22;1295;51.130;6.732;2023-10-19T07:14:46;12.80;99.90
2571;DHT22;1295;51.130;6.732;2023-10-19T07:17:11;12.70;99.90
2571;DHT22;1295;51.130;6.732;2023-10-19T07:19:41;12.80;99.90
2571;DHT22;1295;51.130;6.732;2023-10-19T07:22:03;12.80;99.90
2571;DHT22;1295;51.130;6.732;2023-10-19T07:24:29;12.80;99.90
2571;DHT22;1295;51.130;6.732;2023-10-19T07:26:55;12.80;99.90
2571;DHT22;1295;51.130;6.732;2023-10-19T07:29:27;12.90;99.90
2571;DHT22;1295;51.130;6.732;2023-10-19T07:31:52;13.00;99.90
2571;DHT22;1295;51.130;6.732;2023-10-19T07:34:18;13.10;99.90
2571;DHT22;1295;51.130;6.732;2023-10-19T07:36:43;13.00;99.90
2571;DHT22;1295;51.130;6.732;2023-10-19T07:39:09;12.90;99.90
2571;DHT22;1295;51.130;6.732;2023-10-19T07:41:35;12.90;99.90
2571;DHT22;1295;51.130;6.732;2023-10-19T07:44:00;13.00;99.90
2571;DHT22;1295;51.130;6.732;2023-10-19T07:46:26;13.00;99.90
2571;DHT22;1295;51.130;6.732;2023-10-19T07:48:51;12.90;99.90
2571;DHT22;1295;51.130;6.732;2023-10-19T07:51:17;12.90;99.90
2571;DHT22;1295;51.130;6.732;2023-10-19T07:53:43;13.10;99.90
2571;DHT22;1295;51.130;6.732;2023-10-19T07:56:09;13.10;99.90
2571;DHT22;1295;51.130;6.732;2023-10-19T07:58:34;13.00;99.90
2571;DHT22;1295;51.130;6.732;2023-10-19T08:01:00;13.00;99.90
2571;DHT22;1295;51.130;6.732;2023-10-19T08:03:25;13.10;99.90
2571;DHT22;1295;51.130;6.732;2023-10-19T08:05:51;13.20;99.90
2571;DHT22;1295;51.130;6.732;2023-10-19T08:08:17;13.20;99.90
2571;DHT22;1295;51.130;6.732;2023-10-19T08:10:42;13.40;99.90
2571;DHT22;1295;51.130;6.732;2023-10-19T08:13:08;13.50;99.90
2571;DHT22;1295;51.130;6.732;2023-10-19T08:15:34;13.50;99.90
2571;DHT22;1295;51.130;6.732;2023-10-19T08:17:59;13.60;99.90
2571;DHT22;1295;51.130;6.732;2023-10-19T08:20:25;13.40;99.90
2571;DHT22;1295;51.130;6.732;2023-10-19T08:22:53;13.50;99.90
2571;DHT22;1295;51.130;6.732;2023-10-19T08:25:18;13.30;99.90
2571;DHT22;1295;51.130;6.732;2023-10-19T08:27:44;13.30;99.90
2571;DHT22;1295;51.130;6.732;2023-10-19T08:30:11;13.30;99.90
2571;DHT22;1295;51.130;6.732;2023-10-19T08:32:36;13.40;99.90
2571;DHT22;1295;51.130;6.732;2023-10-19T08:35:02;13.30;99.90
2571;DHT22;1295;51.130;6.732;2023-10-19T08:37:28;13.30;99.90
2571;DHT22;1295;51.130;6.732;2023-10-19T08:39:53;13.50;99.90
2571;DHT22;1295;51.130;6.732;2023-10-19T08:42:25;13.40;99.90
2571;DHT22;1295;51.130;6.732;2023-10-19T08:45:01;13.40;99.90
2571;DHT22;1295;51.130;6.732;2023-10-19T08:47:26;13.40;99.90
2571;DHT22;1295;51.130;6.732;2023-10-19T08:49:53;13.80;99.90
2571;DHT22;1295;51.130;6.732;2023-10-19T08:52:18;13.60;99.90
2571;DHT22;1295;51.130;6.732;2023-10-19T08:54:43;13.60;99.90
2571;DHT22;1295;51.130;6.732;2023-10-19T08:57:09;13.50;99.90
2571;DHT22;1295;51.130;6.732;2023-10-19T08:59:35;13.50;99.90
2571;DHT22;1295;51.130;6.732;2023-10-19T09:02:01;13.90;99.90
2571;DHT22;1295;51.130;6.732;2023-10-19T09:04:26;13.80;99.90
2571;DHT22;1295;51.130;6.732;2023-10-19T09:06:53;14.00;99.90
2571;DHT22;1295;51.130;6.732;2023-10-19T09:09:17;13.80;99.90
2571;DHT22;1295;51.130;6.732;2023-10-19T09:11:43;14.10;99.90
2571;DHT22;1295;51.130;6.732;2023-10-19T09:14:09;14.60;99.90
2571;DHT22;1295;51.130;6.732;2023-10-19T09:16:35;14.60;99.90
2571;DHT22;1295;51.130;6.732;2023-10-19T09:19:00;15.00;99.90
2571;DHT22;1295;51.130;6.732;2023-10-19T09:21:26;15.10;99.90
2571;DHT22;1295;51.130;6.732;2023-10-19T09:23:52;16.00;99.90
2571;DHT22;1295;51.130;6.732;2023-10-19T09:26:17;15.40;99.90
2571;DHT22;1295;51.130;6.732;2023-10-19T09:28:45;16.10;99.90
2571;DHT22;1295;51.130;6.732;2023-10-19T09:31:09;16.00;99.90
2571;DHT22;1295;51.130;6.732;2023-10-19T09:33:35;15.90;99.90
2571;DHT22;1295;51.130;6.732;2023-10-19T09:36:02;16.00;99.90
2571;DHT22;1295;51.130;6.732;2023-10-19T09:38:28;16.10;99.90
2571;DHT22;1295;51.130;6.732;2023-10-19T09:40:54;16.00;99.90
2571;DHT22;1295;51.130;6.732;2023-10-19T09:43:21;15.70;99.90
2571;DHT22;1295;51.130;6.732;2023-10-19T09:45:45;15.70;99.90
2571;DHT22;1295;51.130;6.732;2023-10-19T09:48:10;16.40;99.90
2571;DHT22;1295;51.130;6.732;2023-10-19T09:50:36;16.40;99.90
2571;DHT22;1295;51.130;6.732;2023-10-19T09:53:02;15.70;99.90
2571;DHT22;1295;51.130;6.732;2023-10-19T09:55:29;16.80;99.90
2571;DHT22;1295;51.130;6.732;2023-10-19T09:57:58;17.30;99.90
2571;DHT22;1295;51.130;6.732;2023-10-19T10:00:22;16.00;99.90
2571;DHT22;1295;51.130;6.732;2023-10-19T10:02:50;16.70;99.90
2571;DHT22;1295;51.130;6.732;2023-10-19T10:08:27;17.40;99.90
2571;DHT22;1295;51.130;6.732;2023-10-19T10:10:28;17.00;99.90
2571;DHT22;1295;51.130;6.732;2023-10-19T10:12:54;17.00;99.90
2571;DHT22;1295;51.130;6.732;2023-10-19T10:15:19;16.40;99.90
2571;DHT22;1295;51.130;6.732;2023-10-19T10:17:52;16.20;99.90
2571;DHT22;1295;51.130;6.732;2023-10-19T10:20:33;17.10;99.90
2571;DHT22;1295;51.130;6.732;2023-10-19T10:23:15;16.60;99.90
2571;DHT22;1295;51.130;6.732;2023-10-19T10:25:27;16.60;99.90
2571;DHT22;1295;51.130;6.732;2023-10-19T10:27:52;16.50;99.90
2571;DHT22;1295;51.130;6.732;2023-10-19T10:30:17;16.10;99.90
2571;DHT22;1295;51.130;6.732;2023-10-19T10:32:45;16.80;99.90
2571;DHT22;1295;51.130;6.732;2023-10-19T10:35:42;15.90;99.90
2571;DHT22;1295;51.130;6.732;2023-10-19T10:37:36;15.90;99.90
2571;DHT22;1295;51.130;6.732;2023-10-19T10:40:02;15.90;99.90
2571;DHT22;1295;51.130;6.732;2023-10-19T10:42:28;16.60;99.90
2571;DHT22;1295;51.130;6.732;2023-10-19T10:44:53;16.50;99.90
2571;DHT22;1295;51.130;6.732;2023-10-19T10:47:20;16.10;99.90
2571;DHT22;1295;51.130;6.732;2023-10-19T10:49:52;16.20;99.90
2571;DHT22;1295;51.130;6.732;2023-10-19T10:52:32;16.20;99.90
2571;DHT22;1295;51.130;6.732;2023-10-19T10:54:58;16.70;99.90
2571;DHT22;1295;51.130;6.732;2023-10-19T10:57:24;15.80;99.90
2571;DHT22;1295;51.130;6.732;2023-10-19T11:00:03;16.00;99.90
2571;DHT22;1295;51.130;6.732;2023-10-19T11:02:30;16.10;99.90
2571;DHT22;1295;51.130;6.732;2023-10-19T11:04:55;16.10;99.90
2571;DHT22;1295;51.130;6.732;2023-10-19T11:07:21;16.50;99.90
2571;DHT22;1295;51.130;6.732;2023-10-19T11:09:47;16.90;99.90
2571;DHT22;1295;51.130;6.732;2023-10-19T11:12:13;17.20;99.90
2571;DHT22;1295;51.130;6.732;2023-10-19T11:14:51;16.80;99.90
2571;DHT22;1295;51.130;6.732;2023-10-19T11:17:11;16.60;99.90
2571;DHT22;1295;51.130;6.732;2023-10-19T11:19:38;16.50;99.90
2571;DHT22;1295;51.130;6.732;2023-10-19T11:22:03;16.40;99.90
2571;DHT22;1295;51.130;6.732;2023-10-19T11:24:28;16.80;99.90
2571;DHT22;1295;51.130;6.732;2023-10-19T11:26:54;17.10;99.90
2571;DHT22;1295;51.130;6.732;2023-10-19T11:29:25;17.00;99.90
2571;DHT22;1295;51.130;6.732;2023-10-19T11:32:02;17.00;99.90
2571;DHT22;1295;51.130;6.732;2023-10-19T11:34:28;17.00;99.90
2571;DHT22;1295;51.130;6.732;2023-10-19T11:36:54;17.00;99.90
2571;DHT22;1295;51.130;6.732;2023-10-19T11:39:19;16.80;99.90
2571;DHT22;1295;51.130;6.732;2023-10-19T11:41:45;16.70;99.90
2571;DHT22;1295;51.130;6.732;2023-10-19T11:44:11;16.50;99.90
2571;DHT22;1295;51.130;6.732;2023-10-19T11:46:36;16.90;99.90
2571;DHT22;1295;51.130;6.732;2023-10-19T11:49:02;16.70;99.90
2571;DHT22;1295;51.130;6.732;2023-10-19T11:51:27;16.80;99.90
2571;DHT22;1295;51.130;6.732;2023-10-19T11:53:53;17.10;99.90
2571;DHT22;1295;51.130;6.732;2023-10-19T11:56:19;16.80;99.90
2571;DHT22;1295;51.130;6.732;2023-10-19T11:58:44;16.70;99.90
2571;DHT22;1295;51.130;6.732;2023-10-19T12:01:10;16.70;99.90
2571;DHT22;1295;51.130;6.732;2023-10-19T12:03:39;16.50;99.90
2571;DHT22;1295;51.130;6.732;2023-10-19T12:06:06;16.40;99.90
2571;DHT22;1295;51.130;6.732;2023-10-19T12:08:32;16.50;99.90
2571;DHT22;1295;51.130;6.732;2023-10-19T12:10:57;17.00;99.90
2571;DHT22;1295;51.130;6.732;2023-10-19T12:13:23;16.60;99.90
2571;DHT22;1295;51.130;6.732;2023-10-19T12:15:48;16.70;99.90
2571;DHT22;1295;51.130;6.732;2023-10-19T12:18:18;16.40;99.90
2571;DHT22;1295;51.130;6.732;2023-10-19T12:20:43;16.40;99.90
2571;DHT22;1295;51.130;6.732;2023-10-19T12:23:09;16.90;99.90
2571;DHT22;1295;51.130;6.732;2023-10-19T12:25:34;16.50;99.90
2571;DHT22;1295;51.130;6.732;2023-10-19T12:28:00;16.60;99.90
2571;DHT22;1295;51.130;6.732;2023-10-19T12:30:26;16.40;99.90
2571;DHT22;1295;51.130;6.732;2023-10-19T12:32:52;16.50;99.90
2571;DHT22;1295;51.130;6.732;2023-10-19T12:35:19;16.30;99.90
2571;DHT22;1295;51.130;6.732;2023-10-19T12:37:46;16.30;99.90
2571;DHT22;1295;51.130;6.732;2023-10-19T12:40:12;16.30;99.90
2571;DHT22;1295;51.130;6.732;2023-10-19T12:42:37;16.30;99.90
2571;DHT22;1295;51.130;6.732;2023-10-19T12:45:03;16.40;99.90
2571;DHT22;1295;51.130;6.732;2023-10-19T12:47:30;16.50;99.90
2571;DHT22;1295;51.130;6.732;2023-10-19T12:49:56;16.40;99.90
2571;DHT22;1295;51.130;6.732;2023-10-19T12:52:21;16.40;99.90
2571;DHT22;1295;51.130;6.732;2023-10-19T12:54:47;16.20;99.90
2571;DHT22;1295;51.130;6.732;2023-10-19T12:57:12;16.50;99.90
2571;DHT22;1295;51.130;6.732;2023-10-19T12:59:38;16.50;99.90
2571;DHT22;1295;51.130;6.732;2023-10-19T13:02:05;16.30;99.90
2571;DHT22;1295;51.130;6.732;2023-10-19T13:04:30;16.30;99.90
2571;DHT22;1295;51.130;6.732;2023-10-19T13:06:57;16.30;99.90
2571;DHT22;1295;51.130;6.732;2023-10-19T13:09:24;16.30;99.90
2571;DHT22;1295;51.130;6.732;2023-10-19T13:11:49;16.40;99.90
2571;DHT22;1295;51.130;6.732;2023-10-19T13:14:17;16.40;99.90
2571;DHT22;1295;51.130;6.732;2023-10-19T13:16:42;16.20;99.90
2571;DHT22;1295;51.130;6.732;2023-10-19T13:19:08;16.30;99.90
2571;DHT22;1295;51.130;6.732;2023-10-19T13:21:34;16.10;99.90
2571;DHT22;1295;51.130;6.732;2023-10-19T13:24:00;16.10;99.90
2571;DHT22;1295;51.130;6.732;2023-10-19T13:26:26;16.00;99.90
2571;DHT22;1295;51.130;6.732;2023-10-19T13:28:51;16.00;99.90
2571;DHT22;1295;51.130;6.732;2023-10-19T13:31:17;16.10;99.90
2571;DHT22;1295;51.130;6.732;2023-10-19T13:33:42;16.00;99.90
2571;DHT22;1295;51.130;6.732;2023-10-19T13:36:09;16.00;99.90
2571;DHT22;1295;51.130;6.732;2023-10-19T13:38:34;16.00;99.90
2571;DHT22;1295;51.130;6.732;2023-10-19T13:41:02;16.00;99.90
2571;DHT22;1295;51.130;6.732;2023-10-19T13:43:28;16.00;99.90
2571;DHT22;1295;51.130;6.732;2023-10-19T13:45:53;16.00;99.90
2571;DHT22;1295;51.130;6.732;2023-10-19T13:48:19;16.20;99.90
2571;DHT22;1295;51.130;6.732;2023-10-19T13:50:46;16.10;99.90
2571;DHT22;1295;51.130;6.732;2023-10-19T13:53:12;15.90;99.90
2571;DHT22;1295;51.130;6.732;2023-10-19T13:55:38;15.90;99.90
2571;DHT22;1295;51.130;6.732;2023-10-19T13:58:04;16.00;99.90
2571;DHT22;1295;51.130;6.732;2023-10-19T14:00:29;16.00;99.90
2571;DHT22;1295;51.130;6.732;2023-10-19T14:02:56;15.90;99.90
2571;DHT22;1295;51.130;6.732;2023-10-19T14:05:22;15.90;99.90
2571;DHT22;1295;51.130;6.732;2023-10-19T14:07:49;16.00;99.90
2571;DHT22;1295;51.130;6.732;2023-10-19T14:10:15;16.00;99.90
2571;DHT22;1295;51.130;6.732;2023-10-19T14:12:40;16.00;99.90
2571;DHT22;1295;51.130;6.732;2023-10-19T14:15:13;15.80;99.90
2571;DHT22;1295;51.130;6.732;2023-10-19T14:17:37;15.80;99.90
2571;DHT22;1295;51.130;6.732;2023-10-19T14:20:04;15.80;99.90
2571;DHT22;1295;51.130;6.732;2023-10-19T14:22:31;15.80;99.90
2571;DHT22;1295;51.130;6.732;2023-10-19T14:24:56;15.80;99.90
2571;DHT22;1295;51.130;6.732;2023-10-19T14:27:21;15.80;99.90
2571;DHT22;1295;51.130;6.732;2023-10-19T14:29:47;15.80;99.90
2571;DHT22;1295;51.130;6.732;2023-10-19T14:32:13;15.80;99.90
2571;DHT22;1295;51.130;6.732;2023-10-19T14:34:38;15.80;99.90
2571;DHT22;1295;51.130;6.732;2023-10-19T14:37:04;15.70;99.90
2571;DHT22;1295;51.130;6.732;2023-10-19T14:39:30;15.70;99.90
2571;DHT22;1295;51.130;6.732;2023-10-19T14:41:55;15.80;99.90
2571;DHT22;1295;51.130;6.732;2023-10-19T14:44:21;16.00;99.90
2571;DHT22;1295;51.130;6.732;2023-10-19T14:46:47;15.70;99.90
2571;DHT22;1295;51.130;6.732;2023-10-19T14:49:13;15.70;99.90
2571;DHT22;1295;51.130;6.732;2023-10-19T14:51:39;15.70;99.90
2571;DHT22;1295;51.130;6.732;2023-10-19T14:54:05;15.80;99.90
2571;DHT22;1295;51.130;6.732;2023-10-19T14:56:30;15.90;99.90
2571;DHT22;1295;51.130;6.732;2023-10-19T14:58:56;15.80;99.90
2571;DHT22;1295;51.130;6.732;2023-10-19T15:01:23;15.60;99.90
2571;DHT22;1295;51.130;6.732;2023-10-19T15:03:47;15.70;99.90
2571;DHT22;1295;51.130;6.732;2023-10-19T15:06:13;15.80;99.90
2571;DHT22;1295;51.130;6.732;2023-10-19T15:08:38;15.90;99.90
2571;DHT22;1295;51.130;6.732;2023-10-19T15:11:04;15.80;99.90
2571;DHT22;1295;51.130;6.732;2023-10-19T15:13:29;15.90;99.90
2571;DHT22;1295;51.130;6.732;2023-10-19T15:15:55;15.80;99.90
2571;DHT22;1295;51.130;6.732;2023-10-19T15:18:21;15.70;99.90
2571;DHT22;1295;51.130;6.732;2023-10-19T15:20:46;16.00;99.90
2571;DHT22;1295;51.130;6.732;2023-10-19T15:23:12;16.00;99.90
2571;DHT22;1295;51.130;6.732;2023-10-19T15:25:38;15.80;99.90
2571;DHT22;1295;51.130;6.732;2023-10-19T15:28:04;16.00;99.90
2571;DHT22;1295;51.130;6.732;2023-10-19T15:30:30;16.10;99.90
2571;DHT22;1295;51.130;6.732;2023-10-19T15:32:56;15.80;99.90
2571;DHT22;1295;51.130;6.732;2023-10-19T15:35:22;15.90;99.90
2571;DHT22;1295;51.130;6.732;2023-10-19T15:37:50;15.90;99.90
2571;DHT22;1295;51.130;6.732;2023-10-19T15:40:16;15.80;99.90
2571;DHT22;1295;51.130;6.732;2023-10-19T15:42:42;15.80;99.90
2571;DHT22;1295;51.130;6.732;2023-10-19T15:45:09;15.80;99.90
2571;DHT22;1295;51.130;6.732;2023-10-19T15:47:35;15.90;99.90
2571;DHT22;1295;51.130;6.732;2023-10-19T15:50:00;15.80;99.90
2571;DHT22;1295;51.130;6.732;2023-10-19T15:52:26;15.90;99.90
2571;DHT22;1295;51.130;6.732;2023-10-19T15:54:52;15.90;99.90
2571;DHT22;1295;51.130;6.732;2023-10-19T15:57:18;15.70;99.90
2571;DHT22;1295;51.130;6.732;2023-10-19T15:59:44;15.70;99.90